sensor_id;sensor_type;location;lat;lon;timestamp;pressure;altitude;pressure_sealevel;temperature;humidity
64343;BME280;50675;53.530;-6.312;2022-11-15T00:02:20;98481.25;;;13.66;71.31
64343;BME280;50675;53.530;-6.312;2022-11-15T00:05:18;98439.97;;;13.34;71.46
64343;BME280;50675;53.530;-6.312;2022-11-15T00:07:59;98439.97;;;13.34;71.54
64343;BME280;50675;53.530;-6.312;2022-11-15T00:11:24;98438.19;;;13.38;71.40
64343;BME280;50675;53.530;-6.312;2022-11-15T00:14:08;98396.41;;;13.39;71.57
64343;BME280;50675;53.530;-6.312;2022-11-15T00:17:37;98403.75;;;13.39;71.54
64343;BME280;50675;53.530;-6.312;2022-11-15T00:20:36;98411.88;;;13.39;71.69
64343;BME280;50675;53.530;-6.312;2022-11-15T00:23:54;98413.47;;;13.40;71.99
64343;BME280;50675;53.530;-6.312;2022-11-15T00:29:21;98419.78;;;13.70;71.73
64343;BME280;50675;53.530;-6.312;2022-11-15T00:32:18;98391.13;;;13.51;72.06
64343;BME280;50675;53.530;-6.312;2022-11-15T00:35:05;98378.66;;;13.50;72.11
64343;BME280;50675;53.530;-6.312;2022-11-15T00:37:55;98383.78;;;13.43;71.83
64343;BME280;50675;53.530;-6.312;2022-11-15T08:06:53;98464.66;;;10.04;68.47
64343;BME280;50675;53.530;-6.312;2022-11-15T08:43:31;98482.09;;;9.47;67.94
64343;BME280;50675;53.530;-6.312;2022-11-15T08:46:22;98508.19;;;9.65;67.96
64343;BME280;50675;53.530;-6.312;2022-11-15T08:51:55;98488.84;;;9.63;67.76
64343;BME280;50675;53.530;-6.312;2022-11-15T08:54:29;98496.53;;;9.70;68.08
64343;BME280;50675;53.530;-6.312;2022-11-15T09:00:36;98486.78;;;9.74;67.69
64343;BME280;50675;53.530;-6.312;2022-11-15T09:03:53;98511.69;;;9.98;68.00
64343;BME280;50675;53.530;-6.312;2022-11-15T09:06:41;98476.94;;;9.83;67.81
64343;BME280;50675;53.530;-6.312;2022-11-15T09:09:55;98487.75;;;9.96;68.11
64343;BME280;50675;53.530;-6.312;2022-11-15T09:12:56;98517.72;;;10.08;67.83
64343;BME280;50675;53.530;-6.312;2022-11-15T09:20:30;98480.94;;;10.13;67.83
64343;BME280;50675;53.530;-6.312;2022-11-15T09:31:21;98460.34;;;10.03;68.02
64343;BME280;50675;53.530;-6.312;2022-11-15T09:34:29;98457.34;;;9.91;67.97
64343;BME280;50675;53.530;-6.312;2022-11-15T09:42:04;98456.72;;;9.80;67.88
64343;BME280;50675;53.530;-6.312;2022-11-15T10:49:31;98417.63;;;11.67;68.64
64343;BME280;50675;53.530;-6.312;2022-11-15T10:52:18;98417.53;;;11.72;68.88
64343;BME280;50675;53.530;-6.312;2022-11-15T10:55:21;98412.34;;;11.62;69.26
64343;BME280;50675;53.530;-6.312;2022-11-15T10:58:22;98417.34;;;11.69;69.25
64343;BME280;50675;53.530;-6.312;2022-11-15T11:01:44;98411.41;;;11.67;69.28
64343;BME280;50675;53.530;-6.312;2022-11-15T11:04:22;98411.78;;;11.74;69.08
64343;BME280;50675;53.530;-6.312;2022-11-15T11:07:00;98400.38;;;11.77;69.05
64343;BME280;50675;53.530;-6.312;2022-11-15T11:09:44;98404.56;;;11.69;69.28
64343;BME280;50675;53.530;-6.312;2022-11-15T11:12:34;98400.47;;;11.72;69.22
64343;BME280;50675;53.530;-6.312;2022-11-15T11:15:17;98426.50;;;11.81;69.30
64343;BME280;50675;53.530;-6.312;2022-11-15T11:18:11;98402.75;;;11.78;69.54
64343;BME280;50675;53.530;-6.312;2022-11-15T11:20:58;98394.97;;;11.77;69.24
64343;BME280;50675;53.530;-6.312;2022-11-15T11:30:14;98416.72;;;12.03;69.20
64343;BME280;50675;53.530;-6.312;2022-11-15T11:33:02;98422.78;;;12.08;69.51
64343;BME280;50675;53.530;-6.312;2022-11-15T11:41:50;98403.66;;;11.96;69.50
64343;BME280;50675;53.530;-6.312;2022-11-15T11:47:26;98372.25;;;11.87;69.19
64343;BME280;50675;53.530;-6.312;2022-11-15T11:56:06;98338.69;;;11.88;69.57
64343;BME280;50675;53.530;-6.312;2022-11-15T11:59:02;98348.38;;;11.89;69.07
64343;BME280;50675;53.530;-6.312;2022-11-15T12:01:50;98339.31;;;11.93;69.36
64343;BME280;50675;53.530;-6.312;2022-11-15T12:04:36;98331.84;;;11.90;69.53
64343;BME280;50675;53.530;-6.312;2022-11-15T12:07:28;98327.41;;;11.94;69.66
64343;BME280;50675;53.530;-6.312;2022-11-15T12:13:26;98355.50;;;12.15;69.50
64343;BME280;50675;53.530;-6.312;2022-11-15T12:16:23;98358.81;;;12.12;69.43
64343;BME280;50675;53.530;-6.312;2022-11-15T12:18:58;98354.81;;;12.01;69.59
64343;BME280;50675;53.530;-6.312;2022-11-15T12:24:27;98349.41;;;12.10;69.61
64343;BME280;50675;53.530;-6.312;2022-11-15T12:27:16;98343.66;;;12.03;69.36
64343;BME280;50675;53.530;-6.312;2022-11-15T12:30:01;98353.72;;;12.11;69.65
64343;BME280;50675;53.530;-6.312;2022-11-15T12:32:48;98345.41;;;12.07;69.37
64343;BME280;50675;53.530;-6.312;2022-11-15T12:39:08;98348.78;;;12.13;69.39
64343;BME280;50675;53.530;-6.312;2022-11-15T12:47:26;98312.63;;;12.09;69.50
64343;BME280;50675;53.530;-6.312;2022-11-15T12:55:41;98322.56;;;12.31;69.26
64343;BME280;50675;53.530;-6.312;2022-11-15T13:04:29;98292.28;;;12.11;69.38
64343;BME280;50675;53.530;-6.312;2022-11-15T13:07:05;98290.19;;;12.08;69.39
64343;BME280;50675;53.530;-6.312;2022-11-15T13:12:39;98279.66;;;11.98;69.04
64343;BME280;50675;53.530;-6.312;2022-11-15T13:18:27;98276.19;;;12.06;69.05
64343;BME280;50675;53.530;-6.312;2022-11-15T13:21:28;98271.72;;;12.02;69.00
64343;BME280;50675;53.530;-6.312;2022-11-15T13:24:16;98267.56;;;11.87;69.26
64343;BME280;50675;53.530;-6.312;2022-11-15T13:26:48;98305.66;;;12.16;69.20
64343;BME280;50675;53.530;-6.312;2022-11-15T13:29:25;98270.44;;;11.99;69.21
64343;BME280;50675;53.530;-6.312;2022-11-15T13:32:21;98266.78;;;11.95;69.00
64343;BME280;50675;53.530;-6.312;2022-11-15T13:34:53;98296.25;;;12.14;69.13
64343;BME280;50675;53.530;-6.312;2022-11-15T13:39:54;98277.00;;;12.07;69.16
64343;BME280;50675;53.530;-6.312;2022-11-15T13:42:45;98284.00;;;12.16;69.15
64343;BME280;50675;53.530;-6.312;2022-11-15T13:46:01;98260.72;;;11.98;69.06
64343;BME280;50675;53.530;-6.312;2022-11-15T13:52:56;98266.28;;;11.93;69.05
64343;BME280;50675;53.530;-6.312;2022-11-15T13:55:44;98262.94;;;11.88;68.96
64343;BME280;50675;53.530;-6.312;2022-11-15T13:58:33;98262.81;;;11.93;68.83
64343;BME280;50675;53.530;-6.312;2022-11-15T14:01:52;98284.13;;;12.03;68.95
64343;BME280;50675;53.530;-6.312;2022-11-15T14:08:03;98260.41;;;11.91;68.76
64343;BME280;50675;53.530;-6.312;2022-11-15T14:17:38;98257.22;;;11.89;68.97
64343;BME280;50675;53.530;-6.312;2022-11-15T14:20:53;98250.69;;;11.90;68.89
64343;BME280;50675;53.530;-6.312;2022-11-15T14:23:38;98267.56;;;11.96;68.69
64343;BME280;50675;53.530;-6.312;2022-11-15T14:26:36;98255.00;;;11.91;68.62
64343;BME280;50675;53.530;-6.312;2022-11-15T14:29:37;98239.22;;;11.84;68.73
64343;BME280;50675;53.530;-6.312;2022-11-15T14:32:45;98243.22;;;11.87;68.37
64343;BME280;50675;53.530;-6.312;2022-11-15T14:35:43;98232.69;;;11.86;68.64
64343;BME280;50675;53.530;-6.312;2022-11-15T14:38:34;98234.59;;;11.85;68.86
64343;BME280;50675;53.530;-6.312;2022-11-15T14:41:25;98258.66;;;11.95;68.63
64343;BME280;50675;53.530;-6.312;2022-11-15T14:44:03;98212.66;;;11.78;68.58
64343;BME280;50675;53.530;-6.312;2022-11-15T14:46:31;98219.31;;;11.80;68.61
64343;BME280;50675;53.530;-6.312;2022-11-15T14:49:09;98216.72;;;11.67;68.52
64343;BME280;50675;53.530;-6.312;2022-11-15T14:51:56;98211.34;;;11.75;68.66
64343;BME280;50675;53.530;-6.312;2022-11-15T14:54:29;98218.53;;;11.80;68.41
64343;BME280;50675;53.530;-6.312;2022-11-15T14:56:55;98224.88;;;11.84;68.51
64343;BME280;50675;53.530;-6.312;2022-11-15T14:59:29;98210.09;;;11.73;68.85
64343;BME280;50675;53.530;-6.312;2022-11-15T15:05:17;98245.78;;;11.92;68.60
64343;BME280;50675;53.530;-6.312;2022-11-15T15:08:27;98221.88;;;11.77;68.43
64343;BME280;50675;53.530;-6.312;2022-11-15T15:10:58;98224.56;;;11.77;68.44
64343;BME280;50675;53.530;-6.312;2022-11-15T15:13:39;98241.13;;;11.84;68.32
64343;BME280;50675;53.530;-6.312;2022-11-15T15:16:49;98200.16;;;11.60;68.41
64343;BME280;50675;53.530;-6.312;2022-11-15T15:19:15;98198.56;;;11.59;68.49
64343;BME280;50675;53.530;-6.312;2022-11-15T15:21:49;98226.91;;;11.70;68.26
64343;BME280;50675;53.530;-6.312;2022-11-15T15:24:25;98193.47;;;11.49;68.32
64343;BME280;50675;53.530;-6.312;2022-11-15T15:26:56;98195.34;;;11.48;68.30
64343;BME280;50675;53.530;-6.312;2022-11-15T15:29:30;98181.81;;;11.39;68.31
64343;BME280;50675;53.530;-6.312;2022-11-15T15:32:08;98196.59;;;11.42;68.34
64343;BME280;50675;53.530;-6.312;2022-11-15T15:34:57;98185.59;;;11.30;68.18
64343;BME280;50675;53.530;-6.312;2022-11-15T15:37:40;98184.66;;;11.26;68.36
64343;BME280;50675;53.530;-6.312;2022-11-15T15:40:22;98180.19;;;11.21;68.51
64343;BME280;50675;53.530;-6.312;2022-11-15T15:42:54;98191.16;;;11.25;68.31
64343;BME280;50675;53.530;-6.312;2022-11-15T15:48:29;98173.75;;;11.09;68.16
64343;BME280;50675;53.530;-6.312;2022-11-15T15:51:09;98196.69;;;11.20;68.07
64343;BME280;50675;53.530;-6.312;2022-11-15T15:53:49;98183.09;;;11.03;67.93
64343;BME280;50675;53.530;-6.312;2022-11-15T15:56:25;98186.41;;;11.00;68.07
64343;BME280;50675;53.530;-6.312;2022-11-15T16:02:58;98201.81;;;10.99;67.78
64343;BME280;50675;53.530;-6.312;2022-11-15T16:05:45;98186.84;;;10.93;68.03
64343;BME280;50675;53.530;-6.312;2022-11-15T16:08:46;98195.13;;;10.88;67.96
64343;BME280;50675;53.530;-6.312;2022-11-15T16:14:09;98182.59;;;10.70;68.16
64343;BME280;50675;53.530;-6.312;2022-11-15T16:16:46;98176.34;;;10.61;68.15
64343;BME280;50675;53.530;-6.312;2022-11-15T16:19:17;98181.75;;;10.61;67.92
64343;BME280;50675;53.530;-6.312;2022-11-15T16:21:48;98149.09;;;10.40;67.77
64343;BME280;50675;53.530;-6.312;2022-11-15T16:24:38;98149.47;;;10.25;67.74
64343;BME280;50675;53.530;-6.312;2022-11-15T16:30:03;98163.81;;;10.34;67.61
64343;BME280;50675;53.530;-6.312;2022-11-15T16:32:34;98139.97;;;10.14;67.36
64343;BME280;50675;53.530;-6.312;2022-11-15T16:35:12;98146.13;;;10.05;67.61
64343;BME280;50675;53.530;-6.312;2022-11-15T16:37:44;98134.81;;;10.03;67.43
64343;BME280;50675;53.530;-6.312;2022-11-15T16:40:28;98174.03;;;10.23;67.53
64343;BME280;50675;53.530;-6.312;2022-11-15T16:43:02;98154.13;;;9.97;67.71
64343;BME280;50675;53.530;-6.312;2022-11-15T16:45:47;98149.84;;;9.96;67.44
64343;BME280;50675;53.530;-6.312;2022-11-15T16:48:27;98151.75;;;9.95;67.50
64343;BME280;50675;53.530;-6.312;2022-11-15T16:51:00;98138.78;;;9.84;67.54
64343;BME280;50675;53.530;-6.312;2022-11-15T16:53:28;98138.00;;;9.83;67.39
64343;BME280;50675;53.530;-6.312;2022-11-15T16:56:25;98149.16;;;9.90;67.32
64343;BME280;50675;53.530;-6.312;2022-11-15T16:58:55;98167.63;;;9.97;67.28
64343;BME280;50675;53.530;-6.312;2022-11-15T17:01:32;98132.34;;;9.71;67.07
64343;BME280;50675;53.530;-6.312;2022-11-15T17:04:01;98145.59;;;9.81;67.18
64343;BME280;50675;53.530;-6.312;2022-11-15T17:10:29;98144.44;;;9.74;67.15
64343;BME280;50675;53.530;-6.312;2022-11-15T17:16:39;98140.63;;;9.61;67.16
64343;BME280;50675;53.530;-6.312;2022-11-15T17:19:11;98141.88;;;9.55;67.33
64343;BME280;50675;53.530;-6.312;2022-11-15T17:21:38;98142.28;;;9.48;66.96
64343;BME280;50675;53.530;-6.312;2022-11-15T17:24:11;98148.66;;;9.52;67.08
64343;BME280;50675;53.530;-6.312;2022-11-15T17:26:41;98144.16;;;9.48;67.38
64343;BME280;50675;53.530;-6.312;2022-11-15T17:29:22;98138.50;;;9.36;67.20
64343;BME280;50675;53.530;-6.312;2022-11-15T17:32:23;98146.16;;;9.42;67.09
64343;BME280;50675;53.530;-6.312;2022-11-15T17:34:56;98143.47;;;9.42;67.10
64343;BME280;50675;53.530;-6.312;2022-11-15T17:37:30;98153.34;;;9.47;67.35
64343;BME280;50675;53.530;-6.312;2022-11-15T17:40:07;98133.31;;;9.39;67.19
64343;BME280;50675;53.530;-6.312;2022-11-15T17:42:42;98140.06;;;9.37;67.21
64343;BME280;50675;53.530;-6.312;2022-11-15T17:45:11;98142.47;;;9.38;66.91
64343;BME280;50675;53.530;-6.312;2022-11-15T17:47:40;98133.88;;;9.36;67.19
64343;BME280;50675;53.530;-6.312;2022-11-15T17:50:14;98155.75;;;9.35;67.07
64343;BME280;50675;53.530;-6.312;2022-11-15T17:52:53;98163.41;;;9.41;67.38
64343;BME280;50675;53.530;-6.312;2022-11-15T17:55:21;98150.19;;;9.31;66.88
64343;BME280;50675;53.530;-6.312;2022-11-15T17:57:50;98155.34;;;9.28;66.98
64343;BME280;50675;53.530;-6.312;2022-11-15T18:00:26;98151.28;;;9.30;67.41
64343;BME280;50675;53.530;-6.312;2022-11-15T18:03:08;98140.72;;;9.20;66.91
64343;BME280;50675;53.530;-6.312;2022-11-15T18:05:36;98151.19;;;9.21;67.17
64343;BME280;50675;53.530;-6.312;2022-11-15T18:08:11;98145.59;;;9.18;66.97
64343;BME280;50675;53.530;-6.312;2022-11-15T18:10:44;98152.66;;;9.14;67.13
64343;BME280;50675;53.530;-6.312;2022-11-15T18:13:12;98145.50;;;9.09;67.24
64343;BME280;50675;53.530;-6.312;2022-11-15T18:15:53;98147.69;;;9.07;67.07
64343;BME280;50675;53.530;-6.312;2022-11-15T18:18:37;98157.06;;;9.10;66.78
64343;BME280;50675;53.530;-6.312;2022-11-15T18:21:11;98152.28;;;9.07;66.77
64343;BME280;50675;53.530;-6.312;2022-11-15T18:23:52;98136.91;;;8.94;66.72
64343;BME280;50675;53.530;-6.312;2022-11-15T18:26:23;98133.91;;;8.82;66.83
64343;BME280;50675;53.530;-6.312;2022-11-15T18:29:03;98131.22;;;8.82;66.88
64343;BME280;50675;53.530;-6.312;2022-11-15T18:31:45;98125.94;;;8.76;66.93
64343;BME280;50675;53.530;-6.312;2022-11-15T18:34:30;98138.03;;;8.93;66.92
64343;BME280;50675;53.530;-6.312;2022-11-15T18:41:07;98156.34;;;8.91;66.90
64343;BME280;50675;53.530;-6.312;2022-11-15T18:43:46;98131.59;;;8.75;66.64
64343;BME280;50675;53.530;-6.312;2022-11-15T18:46:22;98119.94;;;8.66;66.72
64343;BME280;50675;53.530;-6.312;2022-11-15T18:48:59;98128.13;;;8.74;66.60
64343;BME280;50675;53.530;-6.312;2022-11-15T18:51:38;98120.84;;;8.75;66.85
64343;BME280;50675;53.530;-6.312;2022-11-15T18:54:15;98101.50;;;8.59;66.92
64343;BME280;50675;53.530;-6.312;2022-11-15T18:56:44;98117.94;;;8.71;66.64
64343;BME280;50675;53.530;-6.312;2022-11-15T18:59:22;98107.38;;;8.61;66.78
64343;BME280;50675;53.530;-6.312;2022-11-15T19:01:52;98120.81;;;8.61;66.62
64343;BME280;50675;53.530;-6.312;2022-11-15T19:04:31;98105.38;;;8.53;66.56
64343;BME280;50675;53.530;-6.312;2022-11-15T19:07:02;98112.75;;;8.61;67.01
64343;BME280;50675;53.530;-6.312;2022-11-15T19:09:36;98105.66;;;8.52;66.85
64343;BME280;50675;53.530;-6.312;2022-11-15T19:12:06;98106.75;;;8.51;66.77
64343;BME280;50675;53.530;-6.312;2022-11-15T19:18:34;98119.53;;;8.59;66.68
64343;BME280;50675;53.530;-6.312;2022-11-15T19:24:47;98106.75;;;8.51;66.96
64343;BME280;50675;53.530;-6.312;2022-11-15T19:27:40;98113.34;;;8.45;66.80
64343;BME280;50675;53.530;-6.312;2022-11-15T19:40:58;98112.09;;;8.37;66.73
64343;BME280;50675;53.530;-6.312;2022-11-15T19:43:37;98101.44;;;8.32;66.53
64343;BME280;50675;53.530;-6.312;2022-11-15T19:49:59;98107.72;;;8.41;66.67
64343;BME280;50675;53.530;-6.312;2022-11-15T19:53:02;98142.53;;;8.65;66.43
64343;BME280;50675;53.530;-6.312;2022-11-15T20:02:43;98119.03;;;8.70;66.61
64343;BME280;50675;53.530;-6.312;2022-11-15T20:05:17;98106.09;;;8.59;66.62
64343;BME280;50675;53.530;-6.312;2022-11-15T20:07:47;98120.34;;;8.73;66.91
64343;BME280;50675;53.530;-6.312;2022-11-15T20:10:21;98103.78;;;8.66;66.79
64343;BME280;50675;53.530;-6.312;2022-11-15T20:13:10;98142.59;;;8.92;66.89
64343;BME280;50675;53.530;-6.312;2022-11-15T20:19:30;98107.09;;;8.90;66.87
64343;BME280;50675;53.530;-6.312;2022-11-15T20:22:04;98099.81;;;8.91;66.72
64343;BME280;50675;53.530;-6.312;2022-11-15T20:28:03;98101.81;;;8.99;66.99
64343;BME280;50675;53.530;-6.312;2022-11-15T20:38:10;98081.69;;;8.96;67.18
64343;BME280;50675;53.530;-6.312;2022-11-15T20:40:39;98072.50;;;8.97;67.01
64343;BME280;50675;53.530;-6.312;2022-11-15T20:43:11;98087.06;;;8.96;67.18
64343;BME280;50675;53.530;-6.312;2022-11-15T20:49:08;98092.25;;;8.93;67.25
64343;BME280;50675;53.530;-6.312;2022-11-15T20:51:37;98087.75;;;9.02;67.15
64343;BME280;50675;53.530;-6.312;2022-11-15T20:54:53;98080.88;;;8.96;67.08
64343;BME280;50675;53.530;-6.312;2022-11-15T20:57:30;98067.72;;;8.81;67.41
64343;BME280;50675;53.530;-6.312;2022-11-15T21:00:18;98069.13;;;8.78;67.19
64343;BME280;50675;53.530;-6.312;2022-11-15T21:03:00;98058.56;;;8.82;67.31
64343;BME280;50675;53.530;-6.312;2022-11-15T21:05:47;98079.38;;;8.90;67.07
64343;BME280;50675;53.530;-6.312;2022-11-15T21:08:49;98102.78;;;9.03;67.19
64343;BME280;50675;53.530;-6.312;2022-11-15T21:11:44;98074.22;;;8.93;67.18
64343;BME280;50675;53.530;-6.312;2022-11-15T21:14:32;98059.81;;;8.84;67.54
64343;BME280;50675;53.530;-6.312;2022-11-15T21:17:03;98057.66;;;8.86;66.91
64343;BME280;50675;53.530;-6.312;2022-11-15T21:19:35;98089.56;;;9.06;67.49
64343;BME280;50675;53.530;-6.312;2022-11-15T21:25:08;98088.84;;;9.14;67.12
64343;BME280;50675;53.530;-6.312;2022-11-15T21:35:11;98062.81;;;9.10;67.09
64343;BME280;50675;53.530;-6.312;2022-11-15T21:37:51;98052.34;;;9.08;67.51
64343;BME280;50675;53.530;-6.312;2022-11-15T21:44:51;98067.31;;;9.01;67.33
64343;BME280;50675;53.530;-6.312;2022-11-15T21:51:24;98062.59;;;9.20;67.63
64343;BME280;50675;53.530;-6.312;2022-11-15T21:54:10;98086.59;;;9.44;67.77
64343;BME280;50675;53.530;-6.312;2022-11-15T21:56:57;98075.63;;;9.40;67.39
64343;BME280;50675;53.530;-6.312;2022-11-15T21:59:28;98059.06;;;9.33;67.29
64343;BME280;50675;53.530;-6.312;2022-11-15T22:02:13;98062.47;;;9.39;67.56
64343;BME280;50675;53.530;-6.312;2022-11-15T22:04:57;98071.00;;;9.54;67.48
64343;BME280;50675;53.530;-6.312;2022-11-15T22:07:50;98054.34;;;9.52;67.53
64343;BME280;50675;53.530;-6.312;2022-11-15T22:10:47;98055.31;;;9.56;67.85
64343;BME280;50675;53.530;-6.312;2022-11-15T22:13:27;98065.97;;;9.61;67.63
64343;BME280;50675;53.530;-6.312;2022-11-15T22:16:23;98065.88;;;9.66;68.06
64343;BME280;50675;53.530;-6.312;2022-11-15T22:20:07;98067.34;;;9.73;67.95
64343;BME280;50675;53.530;-6.312;2022-11-15T22:23:09;98045.28;;;9.71;67.80
